createdAt,value
2023-01-19T00:37:08.495Z,87.88
2023-01-19T00:39:41.478Z,87.94
2023-01-19T00:42:32.744Z,87.90
2023-01-19T00:45:07.606Z,88.08
2023-01-19T00:47:39.636Z,88.14
2023-01-19T00:50:13.976Z,88.02
2023-01-19T00:52:44.890Z,88.02
2023-01-19T00:55:20.260Z,88.12
2023-01-19T00:57:52.380Z,87.88
2023-01-19T01:00:27.789Z,87.96
2023-01-19T01:04:27.433Z,87.83
2023-01-19T01:07:56.410Z,87.86
2023-01-19T01:11:24.872Z,87.93
2023-01-19T01:14:01.618Z,88.05
2023-01-19T01:16:37.405Z,87.98
2023-01-19T01:19:08.622Z,87.86
2023-01-19T01:21:39.873Z,87.77
2023-01-19T01:24:13.668Z,87.84
2023-01-19T01:26:47.799Z,87.96
2023-01-19T01:29:19.246Z,88.05
2023-01-19T01:31:55.448Z,88.08
2023-01-19T01:34:26.226Z,88.33
2023-01-19T01:36:58.876Z,87.92
2023-01-19T01:39:32.056Z,87.85
2023-01-19T01:42:16.286Z,87.88
2023-01-19T01:44:52.320Z,88.16
2023-01-19T01:47:31.119Z,88.04
2023-01-19T01:50:18.966Z,87.96
2023-01-19T01:53:07.520Z,88.14
2023-01-19T01:55:45.748Z,88.28
2023-01-19T01:58:20.098Z,88.13
2023-01-19T02:01:12.679Z,88.15
2023-01-19T02:03:44.385Z,88.23
2023-01-19T02:06:17.894Z,88.25
2023-01-19T02:09:17.525Z,88.24
2023-01-19T02:12:06.822Z,88.26
2023-01-19T02:14:42.745Z,88.13
2023-01-19T02:17:18.851Z,88.24
2023-01-19T02:19:52.537Z,88.30
2023-01-19T02:22:42.283Z,88.22
2023-01-19T02:25:14.553Z,88.27
2023-01-19T02:27:44.399Z,88.29
2023-01-19T02:30:23.460Z,88.32
2023-01-19T02:32:55.936Z,88.43
2023-01-19T02:35:28.841Z,88.41
2023-01-19T02:38:01.706Z,88.23
2023-01-19T02:40:32.587Z,88.32
2023-01-19T02:43:09.373Z,88.24
2023-01-19T02:45:43.969Z,88.16
2023-01-19T02:48:18.181Z,88.07
2023-01-19T02:50:51.062Z,88.29
2023-01-19T02:53:35.055Z,88.45
2023-01-19T02:56:29.191Z,88.40
2023-01-19T02:59:25.772Z,88.30
2023-01-19T03:02:35.078Z,88.63
2023-01-19T03:05:20.131Z,88.44
2023-01-19T03:08:04.890Z,88.93
2023-01-19T03:10:56.487Z,89.28
2023-01-19T03:13:32.992Z,89.28
2023-01-19T03:16:33.309Z,89.62
2023-01-19T03:19:11.708Z,89.60
2023-01-19T03:21:58.899Z,89.57
2023-01-19T03:24:43.485Z,89.31
2023-01-19T03:27:33.798Z,89.07
2023-01-19T03:30:19.120Z,89.24
2023-01-19T03:32:54.906Z,88.87
2023-01-19T03:35:31.705Z,88.21
2023-01-19T03:38:09.091Z,88.43
2023-01-19T03:40:41.933Z,88.97
2023-01-19T03:43:17.069Z,89.28
2023-01-19T03:45:49.842Z,88.94
2023-01-19T03:48:23.252Z,89.27
2023-01-19T03:50:57.014Z,89.44
2023-01-19T03:53:27.424Z,89.43
2023-01-19T03:56:00.582Z,89.71
2023-01-19T03:58:35.606Z,89.80
2023-01-19T04:01:06.238Z,89.17
2023-01-19T04:04:53.576Z,88.62
2023-01-19T04:07:29.736Z,89.10
2023-01-19T04:10:05.814Z,89.30
2023-01-19T04:12:39.311Z,89.06
2023-01-19T04:15:14.211Z,88.77
2023-01-19T04:17:44.270Z,88.73
2023-01-19T04:20:19.037Z,88.67
2023-01-19T04:22:56.612Z,88.67
2023-01-19T04:25:47.222Z,88.32
2023-01-19T04:28:22.235Z,88.48
2023-01-19T04:31:01.884Z,88.34
2023-01-19T04:33:37.428Z,88.20
2023-01-19T04:36:13.097Z,88.52
2023-01-19T04:38:45.411Z,88.76
2023-01-19T04:41:20.187Z,88.76
2023-01-19T04:43:52.771Z,88.86
2023-01-19T04:46:26.343Z,88.55
2023-01-19T04:49:02.191Z,88.52
2023-01-19T04:51:36.197Z,89.11
2023-01-19T04:54:09.658Z,89.23
2023-01-19T04:56:47.419Z,88.68
2023-01-19T04:59:22.097Z,88.51
2023-01-19T05:02:23.354Z,88.51
2023-01-19T05:04:59.164Z,88.62
2023-01-19T05:07:34.210Z,88.77
2023-01-19T05:10:04.946Z,88.75
2023-01-19T05:12:38.868Z,88.49
2023-01-19T05:15:32.439Z,88.75
2023-01-19T05:18:07.020Z,88.64
2023-01-19T05:20:59.139Z,88.94
2023-01-19T05:24:06.509Z,88.78
2023-01-19T05:31:32.606Z,88.86
2023-01-19T05:34:42.722Z,88.99
2023-01-19T05:37:35.857Z,88.99
2023-01-19T05:40:12.321Z,88.89
2023-01-19T05:43:43.237Z,88.79
2023-01-19T05:47:29.990Z,89.01
2023-01-19T05:51:20.668Z,89.20
2023-01-19T05:54:32.593Z,89.40
2023-01-19T05:57:42.255Z,89.20
2023-01-19T06:01:06.120Z,89.24
2023-01-19T06:04:07.727Z,89.13
2023-01-19T06:07:53.943Z,89.00
2023-01-19T06:11:36.397Z,89.25
2023-01-19T06:14:18.965Z,89.45
2023-01-19T06:16:56.711Z,89.17
2023-01-19T06:20:10.097Z,89.17
2023-01-19T06:24:09.032Z,89.06
2023-01-19T06:27:51.815Z,89.26
2023-01-19T06:31:36.021Z,89.18
2023-01-19T06:35:03.373Z,89.07
2023-01-19T06:38:50.148Z,89.17
2023-01-19T06:42:03.188Z,89.34
2023-01-19T06:45:47.742Z,89.24
2023-01-19T06:49:00.099Z,88.93
2023-01-19T06:53:00.768Z,88.97
2023-01-19T06:56:35.219Z,89.19
2023-01-19T07:00:22.589Z,89.25
2023-01-19T07:03:30.541Z,89.31
2023-01-19T07:10:17.296Z,89.24
2023-01-19T07:28:22.497Z,89.35
2023-01-19T07:31:55.370Z,89.13
2023-01-19T07:35:21.846Z,89.00
2023-01-19T07:38:52.063Z,89.10
2023-01-19T07:42:23.446Z,89.18
2023-01-19T07:49:10.817Z,89.05
2023-01-19T07:53:23.722Z,89.14
2023-01-19T07:57:23.194Z,89.21
2023-01-19T08:17:58.767Z,89.22
2023-01-19T09:45:24.961Z,88.86
2023-01-19T09:49:19.882Z,88.90
2023-01-19T09:52:20.483Z,89.03
2023-01-19T09:55:30.275Z,88.95
2023-01-19T10:05:45.424Z,89.13
2023-01-19T10:24:16.645Z,89.29
2023-01-19T11:21:29.191Z,89.22
2023-01-19T11:28:55.385Z,89.18
2023-01-19T11:35:58.844Z,89.09
2023-01-19T11:39:27.243Z,89.21
2023-01-19T11:49:33.943Z,89.57
2023-01-19T11:53:33.995Z,89.54
2023-01-19T12:01:20.820Z,89.33
2023-01-19T12:05:06.038Z,89.34
2023-01-19T12:08:36.491Z,89.32
2023-01-19T12:15:14.089Z,89.60
2023-01-19T12:18:58.618Z,89.72
2023-01-19T12:32:43.874Z,89.50
2023-01-19T12:35:53.976Z,89.13
2023-01-19T12:39:16.167Z,89.45
2023-01-19T12:42:34.451Z,89.52
2023-01-19T12:45:26.451Z,89.80
2023-01-19T12:47:57.149Z,89.74
2023-01-19T12:50:57.947Z,89.72
2023-01-19T12:53:34.813Z,89.56
2023-01-19T12:56:44.161Z,89.55
2023-01-19T12:59:28.018Z,89.25
2023-01-19T13:02:19.346Z,89.62
2023-01-19T13:05:24.433Z,89.96
2023-01-19T13:08:03.182Z,89.62
2023-01-19T13:11:15.943Z,89.85
2023-01-19T13:13:59.413Z,89.61
2023-01-19T13:16:29.919Z,89.37
2023-01-19T13:19:08.836Z,89.58
2023-01-19T13:21:44.417Z,89.46
2023-01-19T13:24:22.756Z,89.49
2023-01-19T13:27:00.583Z,89.56
2023-01-19T13:29:38.914Z,89.79
2023-01-19T13:32:19.967Z,89.66
2023-01-19T13:34:55.053Z,89.75
2023-01-19T13:37:37.847Z,89.83
2023-01-19T13:40:17.373Z,89.61
2023-01-19T13:42:49.811Z,89.83
2023-01-19T13:45:40.421Z,89.79
2023-01-19T13:48:18.016Z,89.80
2023-01-19T13:51:05.627Z,89.88
2023-01-19T13:53:38.645Z,89.84
2023-01-19T13:56:18.873Z,90.00
2023-01-19T13:59:11.539Z,89.89
2023-01-19T14:01:48.529Z,89.84
2023-01-19T14:04:33.564Z,89.95
2023-01-19T14:07:07.573Z,89.76
2023-01-19T14:09:37.522Z,89.76
2023-01-19T14:12:12.569Z,90.20
2023-01-19T14:14:49.817Z,90.13
2023-01-19T14:17:25.529Z,90.07
2023-01-19T14:19:58.439Z,89.97
2023-01-19T14:22:44.708Z,90.01
2023-01-19T14:25:33.928Z,89.94
2023-01-19T14:28:44.379Z,90.05
2023-01-19T14:31:24.546Z,89.87
2023-01-19T14:33:59.203Z,90.12
2023-01-19T14:36:38.570Z,90.53
2023-01-19T14:39:21.602Z,90.39
2023-01-19T14:41:54.134Z,90.58
2023-01-19T14:44:36.568Z,90.20
2023-01-19T14:47:10.529Z,90.10
2023-01-19T14:49:47.352Z,89.98
2023-01-19T14:52:31.428Z,89.99
2023-01-19T14:55:07.234Z,90.32
2023-01-19T14:57:39.577Z,90.10
2023-01-19T15:00:18.013Z,90.54
2023-01-19T15:02:50.873Z,90.40
2023-01-19T15:05:22.288Z,90.59
2023-01-19T15:07:55.830Z,90.38
2023-01-19T15:10:35.276Z,90.40
2023-01-19T15:13:19.439Z,90.35
2023-01-19T15:15:50.280Z,90.43
2023-01-19T15:18:25.978Z,90.34
2023-01-19T15:21:03.125Z,90.04
2023-01-19T15:23:34.978Z,90.47
2023-01-19T15:26:07.435Z,90.39
2023-01-19T15:28:37.704Z,90.47
2023-01-19T15:31:08.304Z,90.36
2023-01-19T15:33:38.507Z,90.17
2023-01-19T15:36:18.574Z,90.18
2023-01-19T15:38:51.344Z,90.13
2023-01-19T15:41:26.938Z,90.29
2023-01-19T15:43:58.826Z,90.38
2023-01-19T15:46:30.766Z,90.03
2023-01-19T15:49:02.618Z,90.37
2023-01-19T15:51:33.770Z,90.09
2023-01-19T15:54:05.424Z,90.65
2023-01-19T15:56:39.615Z,90.49
2023-01-19T15:59:11.545Z,90.37
2023-01-19T16:01:44.339Z,90.32
2023-01-19T16:04:18.649Z,90.49
2023-01-19T16:06:54.841Z,90.40
2023-01-19T16:10:07.298Z,90.20
2023-01-19T16:22:42.286Z,90.72
2023-01-19T16:26:02.302Z,90.75
2023-01-19T16:28:36.963Z,90.41
2023-01-19T16:31:19.627Z,90.53
2023-01-19T16:33:52.810Z,90.41
2023-01-19T16:36:24.326Z,90.70
2023-01-19T16:38:59.754Z,90.46
2023-01-19T16:41:53.311Z,90.46
2023-01-19T16:44:30.482Z,90.56
2023-01-19T16:47:10.529Z,90.50
2023-01-19T16:49:42.431Z,90.62
2023-01-19T16:52:17.441Z,90.61
2023-01-19T16:55:01.642Z,90.76
2023-01-19T16:57:35.685Z,90.51
2023-01-19T17:00:14.249Z,90.73
2023-01-19T17:02:53.554Z,90.88
2023-01-19T17:05:27.451Z,90.90
2023-01-19T17:07:58.721Z,91.06
2023-01-19T17:10:40.441Z,91.02
2023-01-19T17:13:14.569Z,91.19
2023-01-19T17:15:45.001Z,91.15
2023-01-19T17:18:21.281Z,91.26
2023-01-19T17:20:55.184Z,90.85
2023-01-19T17:23:29.409Z,90.51
2023-01-19T17:26:00.298Z,91.02
2023-01-19T17:28:33.482Z,91.23
2023-01-19T17:31:14.252Z,90.86
2023-01-19T17:33:47.663Z,90.73
2023-01-19T17:36:23.364Z,90.79
2023-01-19T17:39:00.050Z,90.86
2023-01-19T17:41:41.055Z,91.12
2023-01-19T17:44:14.787Z,91.02
2023-01-19T17:46:45.618Z,91.19
2023-01-19T17:49:18.136Z,91.52
2023-01-19T17:51:52.713Z,90.91
2023-01-19T17:54:33.975Z,90.92
2023-01-19T17:57:05.262Z,90.74
2023-01-19T17:59:35.993Z,90.77
2023-01-19T18:02:10.598Z,90.50
2023-01-19T18:04:41.606Z,90.35
2023-01-19T18:07:13.191Z,90.26
2023-01-19T18:09:51.151Z,90.27
2023-01-19T18:12:26.446Z,90.23
2023-01-19T18:14:58.631Z,90.57
2023-01-19T18:17:34.214Z,90.49
2023-01-19T18:20:06.791Z,90.57
2023-01-19T18:22:41.311Z,90.58
2023-01-19T18:25:21.901Z,90.42
2023-01-19T18:27:56.975Z,90.62
2023-01-19T18:30:32.184Z,90.57
2023-01-19T18:33:07.249Z,90.49
2023-01-19T19:01:54.530Z,91.39
2023-01-19T19:30:57.340Z,91.14
2023-01-19T19:34:47.922Z,90.94
2023-01-19T19:45:43.511Z,90.81
2023-01-19T19:56:03.137Z,90.64
2023-01-19T20:21:15.161Z,90.62
2023-01-19T20:28:04.999Z,90.78
2023-01-19T20:32:04.898Z,90.43
2023-01-19T20:35:32.000Z,90.44
2023-01-19T20:43:00.393Z,90.45
2023-01-19T20:46:55.378Z,90.49
2023-01-19T20:57:15.528Z,91.01
2023-01-19T21:11:03.838Z,91.09
2023-01-19T21:14:46.729Z,91.10
2023-01-19T21:18:24.757Z,91.02
2023-01-19T21:22:04.249Z,90.73
2023-01-19T21:25:41.894Z,91.19
2023-01-19T21:33:09.711Z,91.49
2023-01-19T21:39:56.187Z,91.05
2023-01-19T21:43:28.133Z,91.24
2023-01-19T21:47:12.302Z,91.11
2023-01-19T21:50:56.454Z,91.42
2023-01-19T21:54:47.527Z,91.22
2023-01-19T22:02:37.905Z,90.81
2023-01-19T22:05:53.809Z,90.84
2023-01-19T22:09:45.060Z,91.09
2023-01-19T22:13:33.066Z,90.96
2023-01-19T22:16:56.362Z,90.73
2023-01-19T22:20:40.486Z,90.64
2023-01-19T22:24:28.609Z,90.64
2023-01-19T22:28:28.438Z,91.09
2023-01-19T22:31:56.502Z,91.17
2023-01-19T22:39:09.298Z,91.15
2023-01-19T22:42:48.072Z,90.99
2023-01-19T22:49:24.196Z,91.11
2023-01-19T22:56:45.249Z,91.09
2023-01-19T23:00:02.440Z,91.32
2023-01-19T23:03:46.013Z,90.95
2023-01-19T23:07:15.573Z,90.86
2023-01-19T23:10:47.126Z,90.53
2023-01-19T23:14:31.023Z,90.30
2023-01-19T23:21:27.024Z,90.53
2023-01-19T23:25:17.911Z,90.90
2023-01-19T23:29:02.101Z,90.79
2023-01-19T23:32:41.804Z,90.81
2023-01-19T23:39:39.390Z,91.01
2023-01-19T23:43:20.509Z,90.95
2023-01-19T23:47:12.333Z,91.27
2023-01-19T23:54:14.721Z,91.17
